createdAt,value
2017-11-07T00:08:31.000Z,22.91
2017-11-07T00:18:31.000Z,22.88
2017-11-07T00:28:31.000Z,22.77
2017-11-07T00:38:31.000Z,22.83
2017-11-07T00:48:31.000Z,22.82
2017-11-07T00:58:31.000Z,22.77
2017-11-07T01:08:31.000Z,22.63
2017-11-07T01:18:31.000Z,22.6
2017-11-07T01:28:31.000Z,22.55
2017-11-07T01:38:31.000Z,22.45
2017-11-07T01:48:31.000Z,22.39
2017-11-07T01:58:31.000Z,22.4
2017-11-07T02:08:31.000Z,22.31
2017-11-07T02:28:31.000Z,22.23
2017-11-07T02:48:31.000Z,22.03
2017-11-07T02:58:31.000Z,22.06
2017-11-07T03:08:31.000Z,21.98
2017-11-07T03:18:31.000Z,21.92
2017-11-07T03:28:31.000Z,21.89
2017-11-07T03:38:31.000Z,21.88
2017-11-07T03:48:31.000Z,21.84
2017-11-07T03:58:31.000Z,21.81
2017-11-07T04:08:31.000Z,21.8
2017-11-07T04:18:31.000Z,21.77
2017-11-07T04:28:31.000Z,21.73
2017-11-07T04:38:31.000Z,21.68
2017-11-07T04:48:31.000Z,21.67
2017-11-07T04:58:31.000Z,21.63
2017-11-07T05:08:31.000Z,21.63
2017-11-07T05:18:31.000Z,21.63
2017-11-07T05:28:31.000Z,21.69
2017-11-07T05:38:31.000Z,21.7
2017-11-07T05:48:31.000Z,21.7
2017-11-07T05:58:31.000Z,21.72
2017-11-07T06:08:31.000Z,21.78
2017-11-07T06:18:31.000Z,21.76
2017-11-07T06:28:31.000Z,21.82
2017-11-07T06:38:31.000Z,21.81
2017-11-07T06:48:31.000Z,21.85
2017-11-07T06:58:31.000Z,21.92
2017-11-07T07:08:31.000Z,21.91
2017-11-07T07:18:31.000Z,21.97
2017-11-07T07:28:31.000Z,21.99
2017-11-07T07:38:31.000Z,21.29
2017-11-07T07:48:32.000Z,21.66
2017-11-07T07:58:31.000Z,21.81
2017-11-07T08:08:31.000Z,21.86
2017-11-07T08:18:32.000Z,21.92
2017-11-07T08:28:32.000Z,22
2017-11-07T08:38:32.000Z,21.99
2017-11-07T08:48:32.000Z,22.15
2017-11-07T08:58:32.000Z,22.27
2017-11-07T09:08:32.000Z,22.42
2017-11-07T09:18:32.000Z,20.54
2017-11-07T09:28:32.000Z,21.64
2017-11-07T09:38:32.000Z,22.05
2017-11-07T09:48:32.000Z,22.19
2017-11-07T09:58:32.000Z,22.3
2017-11-07T10:08:32.000Z,22.4
2017-11-07T10:18:32.000Z,22.52
2017-11-07T10:28:32.000Z,22.58
2017-11-07T10:38:32.000Z,22.77
2017-11-07T10:48:32.000Z,22.79
2017-11-07T10:58:32.000Z,22.87
2017-11-07T11:08:32.000Z,22.98
2017-11-07T11:18:32.000Z,23.12
2017-11-07T11:28:32.000Z,23.47
2017-11-07T11:38:32.000Z,23.48
2017-11-07T11:48:32.000Z,23.56
2017-11-07T11:58:32.000Z,23.59
2017-11-07T12:08:32.000Z,23.58
2017-11-07T12:18:32.000Z,23.67
2017-11-07T12:28:32.000Z,23.75
2017-11-07T12:38:32.000Z,23.78
2017-11-07T12:48:32.000Z,23.83
2017-11-07T12:58:32.000Z,23.87
2017-11-07T13:08:32.000Z,23.88
2017-11-07T13:18:32.000Z,23.99
2017-11-07T13:28:32.000Z,23.99
2017-11-07T13:38:32.000Z,24.05
2017-11-07T13:48:32.000Z,24.07
2017-11-07T13:58:32.000Z,24.08
2017-11-07T14:08:32.000Z,24.12
2017-11-07T14:18:32.000Z,24.2
2017-11-07T14:28:32.000Z,24.16
2017-11-07T14:38:32.000Z,24.17
2017-11-07T14:48:32.000Z,24.14
2017-11-07T14:58:32.000Z,24.19
2017-11-07T15:08:32.000Z,24.15
2017-11-07T15:28:32.000Z,24.08
2017-11-07T15:38:32.000Z,24.07
2017-11-07T15:48:32.000Z,24.14
2017-11-07T15:58:32.000Z,24.14
2017-11-07T16:08:32.000Z,24.18
2017-11-07T16:18:32.000Z,24.34
2017-11-07T16:28:32.000Z,24.33
2017-11-07T16:38:33.000Z,24.44
2017-11-07T16:48:33.000Z,24.42
2017-11-07T16:58:33.000Z,24.42
2017-11-07T17:08:33.000Z,24.46
2017-11-07T17:18:33.000Z,24.5
2017-11-07T17:28:33.000Z,24.46
2017-11-07T17:38:33.000Z,24.47
2017-11-07T17:48:33.000Z,24.37
2017-11-07T17:58:36.000Z,24.44
2017-11-07T18:08:33.000Z,24.46
2017-11-07T18:18:33.000Z,24.46
2017-11-07T18:28:33.000Z,24.43
2017-11-07T18:38:33.000Z,24.48
2017-11-07T18:58:33.000Z,24.43
2017-11-07T19:08:33.000Z,24.45
2017-11-07T19:18:33.000Z,24.38
2017-11-07T19:28:33.000Z,24.27
2017-11-07T19:38:33.000Z,24.24
2017-11-07T19:48:33.000Z,24.29
2017-11-07T19:58:34.000Z,24.28
2017-11-07T20:08:33.000Z,24.26
2017-11-07T20:18:33.000Z,24.21
2017-11-07T20:28:33.000Z,24.17
2017-11-07T20:38:33.000Z,24.16
2017-11-07T20:48:33.000Z,24.13
2017-11-07T20:58:33.000Z,24.15
2017-11-07T21:08:33.000Z,24.29
2017-11-07T21:18:33.000Z,24.12
2017-11-07T21:28:34.000Z,24.07
2017-11-07T21:38:33.000Z,24.11
2017-11-07T21:48:33.000Z,24.06
2017-11-07T21:58:33.000Z,24.12
2017-11-07T22:08:35.000Z,24.07
2017-11-07T22:18:33.000Z,24.12
2017-11-07T22:28:33.000Z,24.1
2017-11-07T22:38:33.000Z,24.05
2017-11-07T22:48:33.000Z,24.05
2017-11-07T22:58:33.000Z,23.96
2017-11-07T23:08:33.000Z,23.95
2017-11-07T23:18:33.000Z,24.05
2017-11-07T23:28:33.000Z,24.13
2017-11-07T23:38:33.000Z,24.04
2017-11-07T23:48:33.000Z,24.01
2017-11-07T23:58:33.000Z,23.97
